Latest Weather Observations for Taree Airport

IDN60801

Issued at 4:52 am EDT Friday 22 February 2019 (issued every 10 minutes, with the page automatically refreshed every 10 minutes)

About weather observations | Map of weather stations | Latest weather observations for NSW | Other Formats
Station Details ID: 060141 Name: TAREE AIRPORT AWS Lat: -31.89 Lon: 152.51 Height: 8.0 m
Data from the previous 72 hours. | See also: Recent months at Taree Airport
Date/Time
EDT
Temp
°C
App
Temp
°C
Dew
Point
°C
Rel
Hum
%
Delta-T
°C
Wind Press
QNH
hPa
Press
MSL
hPa
Rain since
9am
mm
Dir  Spd
km/h
Gust
km/h
Spd
kts
Gust
kts
22/04:30am 22.4 22.2 16.7 70 3.5 SE 13 19 7 10 1015.6 1015.5 7.0
22/04:00am 22.4 21.7 16.4 69 3.6 SE 15 26 8 14 1015.6 1015.5 7.0
22/03:30am 22.5 22.0 16.8 70 3.5 SE 15 22 8 12 1016.0 1015.9 7.0
22/03:00am 22.3 21.9 16.1 68 3.7 SE 13 20 7 11 1016.3 1016.2 7.0
22/02:30am 22.2 21.8 16.2 69 3.6 SE 13 19 7 10 1016.4 1016.3 7.0
22/02:00am 22.5 21.8 16.5 69 3.6 SSE 15 20 8 11 1016.6 1016.5 7.0
22/01:30am 22.4 21.3 16.4 69 3.6 SE 17 26 9 14 1016.8 1016.7 7.0
22/01:00am 22.7 21.2 16.7 69 3.7 SSE 20 28 11 15 1017.0 1016.9 7.0
22/12:30am 22.7 20.3 16.5 68 3.8 SE 24 35 13 19 1017.1 1017.0 7.0
22/12:00am 22.8 20.6 16.8 69 3.7 SSE 24 35 13 19 1017.0 1016.9 7.0
 
Date/Time
EDT
Temp
°C
App
Temp
°C
Dew
Point
°C
Rel
Hum
%
Delta-T
°C
Wind Press
QNH
hPa
Press
MSL
hPa
Rain since
9am
mm
Dir  Spd
km/h
Gust
km/h
Spd
kts
Gust
kts
21/11:30pm 22.9 20.7 16.9 69 3.7 SSE 24 33 13 18 1016.8 1016.7 7.0
21/11:00pm 22.8 21.7 17.3 71 3.4 SSE 19 26 10 14 1016.9 1016.8 7.0
21/10:30pm 22.8 21.7 17.7 73 3.2 SSE 20 30 11 16 1017.0 1016.9 7.0
21/10:00pm 23.0 21.8 17.5 71 3.4 SSE 20 30 11 16 1016.9 1016.8 7.0
21/09:30pm 23.0 22.1 17.7 72 3.3 SSE 19 28 10 15 1016.7 1016.6 7.0
21/09:00pm 22.4 21.9 18.6 79 2.4 SSE 19 32 10 17 1016.3 1016.2 7.0
21/08:30pm 23.1 23.1 18.0 73 3.2 SSE 15 24 8 13 1015.9 1015.8 6.4
21/08:00pm 23.0 22.0 17.9 73 3.2 SSE 20 30 11 16 1015.2 1015.1 6.4
21/07:30pm 23.1 22.9 18.6 76 2.8 SE 17 22 9 12 1014.9 1014.8 6.4
21/07:00pm 23.3 22.6 18.6 75 3.0 SE 20 30 11 16 1014.6 1014.5 6.4
21/06:30pm 23.4 22.4 18.9 76 2.9 SE 22 32 12 17 1014.3 1014.2 6.4
21/06:00pm 23.5 22.5 18.8 75 3.0 SE 22 32 12 17 1013.7 1013.6 6.4
21/05:30pm 23.5 23.0 19.0 76 2.9 SE 20 32 11 17 1013.5 1013.4 6.4
21/05:00pm 23.3 22.6 19.5 79 2.4 SE 22 35 12 19 1013.0 1012.9 6.4
21/04:30pm 23.1 22.1 19.7 81 2.2 SE 24 37 13 20 1012.8 1012.7 6.4
21/04:00pm 22.8 23.1 20.7 88 1.4 SSE 20 32 11 17 1012.7 1012.6 6.4
21/03:50pm 22.2 23.8 21.4 95 0.5 SSE 15 20 8 11 1012.7 1012.6 6.4
21/03:37pm 22.1 24.6 21.1 94 0.7 SE 9 20 5 11 1012.7 1012.6 6.0
21/03:30pm 21.9 24.4 21.1 95 0.5 E 9 15 5 8 1012.7 1012.6 5.4
21/03:18pm 22.0 23.8 21.2 95 0.5 E 13 19 7 10 1012.8 1012.7 3.6
21/03:15pm 22.4 24.1 21.7 96 0.5 E 15 30 8 16 1012.9 1012.8 2.6
21/03:14pm 22.3 23.9 21.5 95 0.5 ESE 15 30 8 16 1012.9 1012.8 2.6
21/03:00pm 22.5 23.3 21.8 96 0.5 SE 20 30 11 16 1013.0 1012.9 1.8
21/02:56pm 22.5 22.5 21.7 95 0.5 SE 24 32 13 17 1013.0 1012.9 1.6
21/02:55pm 22.4 22.3 21.4 94 0.7 SE 24 32 13 17 1013.0 1012.9 1.4
21/02:31pm 23.3 24.1 21.4 89 1.3 SSE 19 30 10 16 1013.1 1013.0 1.0
21/02:30pm 23.3 23.9 21.4 89 1.3 SSE 20 30 11 16 1013.1 1013.0 1.0
21/02:00pm 25.7 26.4 21.6 78 2.7 SE 20 33 11 18 1013.2 1013.1 0.6
21/01:30pm 23.7 25.7 20.8 84 1.9 SE 11 19 6 10 1013.3 1013.2 0.4
21/01:00pm 26.6 28.5 19.0 63 4.9 E 7 15 4 8 1013.0 1012.9 0.2
21/12:30pm 26.3 27.4 18.9 63 4.7 SE 11 19 6 10 1013.0 1012.9 0.2
21/12:00pm 26.3 26.9 19.4 66 4.5 SSE 15 22 8 12 1013.3 1013.2 0.2
21/11:30am 25.1 27.0 19.7 72 3.5 SW 9 15 5 8 1013.4 1013.3 0.0
21/11:00am 24.9 25.7 19.1 70 3.7 SSW 13 17 7 9 1013.6 1013.5 0.0
21/10:30am 23.1 25.4 19.5 80 2.3 WNW 6 13 3 7 1013.8 1013.7 0.0
21/10:00am 21.9 23.5 19.1 84 1.8 NW 9 11 5 6 1013.8 1013.7 0.0
21/09:30am 21.4 23.6 19.1 87 1.5 NNE 6 9 3 5 1013.3 1013.2 0.0
21/09:00am 20.9 22.2 19.2 90 1.1 E 11 17 6 9 1013.0 1012.9 13.2
21/08:30am 20.8 20.7 20.0 95 0.5 ESE 20 33 11 18 1012.8 1012.7 13.2
21/08:17am 20.7 20.5 19.7 94 0.6 SE 20 30 11 16 1012.6 1012.5 13.2
21/08:00am 20.7 20.8 20.4 98 0.2 SE 20 32 11 17 1012.2 1012.1 13.0
21/07:30am 21.6 23.2 21.4 99 0.1 S 15 20 8 11 1011.6 1011.5 12.0
21/07:00am 21.8 25.3 21.8 100 0.0 SSW 6 9 3 5 1011.2 1011.1 8.8
21/06:51am 21.7 24.6 21.7 100 0.0 SSW 9 11 5 6 1011.1 1011.0 8.6
21/06:30am 21.5 24.3 21.5 100 0.0 W 9 13 5 7 1010.5 1010.4 8.6
21/06:00am 21.6 24.4 21.6 100 0.0 WNW 9 13 5 7 1010.3 1010.2 8.6
21/05:30am 21.8 25.1 21.8 100 0.0 WNW 7 9 4 5 1010.0 1009.9 8.6
21/05:00am 21.8 25.1 21.8 100 0.0 W 7 9 4 5 1009.9 1009.8 8.6
21/04:30am 22.0 25.0 22.0 100 0.0 WNW 9 11 5 6 1009.6 1009.5 8.6
21/04:00am 22.1 25.7 22.1 100 0.0 W 6 7 3 4 1009.7 1009.6 8.6
21/03:30am 22.1 25.6 22.1 100 0.0 SSW 7 9 4 5 1009.8 1009.7 8.6
21/03:00am 21.9 25.8 21.9 100 0.0 NNW 4 11 2 6 1009.9 1009.8 8.4
21/02:30am 22.1 25.2 22.1 100 0.0 WSW 9 11 5 6 1009.8 1009.7 8.4
21/02:00am 22.0 24.7 21.3 96 0.5 WNW 9 13 5 7 1010.0 1009.9 6.0
21/01:30am 22.4 25.1 21.4 94 0.7 ESE 9 13 5 7 1010.3 1010.2 0.4
21/01:26am 22.4 24.6 21.2 93 0.8 E 11 15 6 8 1010.4 1010.3 0.2
21/01:00am 23.0 26.1 21.1 89 1.2 W 6 7 3 4 1010.4 1010.3 0.2
21/12:30am 22.8 25.6 20.9 89 1.2 W 7 9 4 5 1010.6 1010.5 0.2
21/12:00am 23.1 27.1 20.6 86 1.6 CALM 0 7 0 4 1010.6 1010.5 0.2
 
Date/Time
EDT
Temp
°C
App
Temp
°C
Dew
Point
°C
Rel
Hum
%
Delta-T
°C
Wind Press
QNH
hPa
Press
MSL
hPa
Rain since
9am
mm
Dir  Spd
km/h
Gust
km/h
Spd
kts
Gust
kts
20/11:30pm 23.3 26.5 20.6 85 1.8 WSW 4 9 2 5 1010.6 1010.5 0.2
20/11:00pm 23.6 26.2 20.5 83 2.0 SSW 7 9 4 5 1010.7 1010.6 0.2
20/10:30pm 23.0 24.7 20.1 84 1.9 ENE 11 13 6 7 1009.9 1009.8 0.2
20/10:00pm 23.7 27.5 20.2 81 2.3 CALM 0 0 0 0 1010.9 1010.8 0.2
20/09:30pm 23.9 26.6 20.2 80 2.4 ENE 6 7 3 4 1011.0 1010.9 0.2
20/09:00pm 23.9 25.9 20.0 79 2.5 E 9 11 5 6 1010.1 1010.0 0.2
20/08:30pm 24.1 27.1 20.0 78 2.6 NNE 4 11 2 6 1009.5 1009.4 0.2
20/08:00pm 24.3 25.8 19.8 76 2.9 NE 11 15 6 8 1009.4 1009.3 0.2
20/07:30pm 24.8 25.1 19.6 73 3.3 NE 17 22 9 12 1009.0 1008.9 0.2
20/07:00pm 25.3 25.9 19.4 70 3.8 E 15 20 8 11 1008.4 1008.3 0.2
20/06:30pm 25.5 25.4 19.6 70 3.8 NE 19 26 10 14 1008.0 1007.9 0.2
20/06:00pm 26.3 25.6 19.4 66 4.5 ENE 22 30 12 16 1007.4 1007.3 0.2
20/05:30pm 26.9 25.7 20.0 66 4.5 ENE 26 32 14 17 1007.5 1007.4 0.2
20/05:00pm 27.3 27.0 20.4 66 4.5 E 22 32 12 17 1007.3 1007.2 0.2
20/04:30pm 27.4 26.3 20.2 65 4.7 E 26 33 14 18 1007.2 1007.1 0.2
20/04:00pm 27.5 26.3 20.1 64 4.8 E 26 37 14 20 1007.2 1007.1 0.2
20/03:30pm 27.6 26.7 19.9 63 5.0 E 24 33 13 18 1007.2 1007.1 0.2
20/03:00pm 28.9 28.2 21.1 62 5.2 ESE 26 33 14 18 1007.3 1007.2 0.2
20/02:30pm 28.0 26.8 20.0 61 5.2 ESE 26 33 14 18 1007.5 1007.4 0.2
20/02:00pm 28.8 28.2 20.5 61 5.5 ESE 24 33 13 18 1007.5 1007.4 0.2
20/01:30pm 28.7 28.4 20.4 60 5.5 ESE 22 32 12 17 1007.8 1007.7 0.2
20/01:00pm 29.4 29.6 19.4 55 6.5 ENE 17 30 9 16 1008.0 1007.9 0.2
20/12:30pm 28.2 28.7 20.0 61 5.4 E 17 24 9 13 1008.5 1008.4 0.2
20/12:00pm 28.7 29.5 19.9 59 5.8 ENE 15 22 8 12 1008.9 1008.8 0.2
20/11:30am 28.1 30.5 20.1 62 5.2 NW 7 19 4 10 1009.2 1009.1 0.2
20/11:00am 28.1 29.8 19.3 58 5.7 E 9 13 5 7 1009.6 1009.5 0.2
20/10:30am 27.0 28.7 19.4 63 4.9 NE 9 13 5 7 1010.0 1009.9 0.2
20/10:00am 25.8 27.3 19.7 69 4.0 NE 11 13 6 7 1010.0 1009.9 0.0
20/09:30am 25.9 29.1 21.3 76 3.0 S 6 7 3 4 1010.0 1009.9 0.0
20/09:00am 24.6 27.3 20.7 79 2.6 W 7 11 4 6 1010.0 1009.9 2.2
20/08:30am 23.5 26.2 20.2 82 2.1 W 6 9 3 5 1010.0 1009.9 2.2
20/08:00am 22.1 24.4 19.8 87 1.5 W 7 9 4 5 1009.9 1009.8 2.2
20/07:30am 21.0 23.4 20.0 94 0.6 W 7 11 4 6 1009.5 1009.4 2.2
20/07:00am 20.1 22.4 19.4 96 0.4 NW 6 7 3 4 1009.5 1009.4 2.2
20/06:30am 20.6 23.4 19.6 94 0.6 W 4 7 2 4 1009.3 1009.2 2.2
20/06:00am 20.7 22.9 19.5 93 0.8 WNW 7 7 4 4 1009.1 1009.0 2.2
20/05:30am 20.9 23.2 19.4 91 1.0 W 6 9 3 5 1009.0 1008.9 2.2
20/05:00am 21.0 23.7 19.5 91 1.0 W 4 7 2 4 1008.9 1008.8 2.2
20/04:30am 21.1 23.3 19.6 91 1.0 W 7 9 4 5 1008.9 1008.8 2.2
20/04:00am 21.0 23.2 19.5 91 1.0 WNW 7 9 4 5 1008.9 1008.8 2.2
20/03:30am 21.0 24.4 19.3 90 1.1 CALM 0 0 0 0 1008.9 1008.8 2.2
20/03:00am 21.0 23.1 19.3 90 1.1 WNW 7 11 4 6 1009.1 1009.0 2.2
20/02:30am 20.8 22.5 19.3 91 0.9 NNW 9 13 5 7 1009.2 1009.1 2.2
20/02:00am 20.9 22.6 19.4 91 1.0 WSW 9 11 5 6 1009.0 1008.9 2.2
20/01:30am 21.0 22.7 19.3 90 1.1 WSW 9 11 5 6 1009.6 1009.5 2.2
20/01:00am 21.0 22.9 18.9 88 1.3 WNW 7 9 4 5 1009.9 1009.8 2.2
20/12:30am 21.1 23.0 18.9 87 1.4 W 7 9 4 5 1010.3 1010.2 2.2
20/12:00am 21.7 23.3 19.1 85 1.6 W 9 11 5 6 1010.2 1010.1 2.2
 
Date/Time
EDT
Temp
°C
App
Temp
°C
Dew
Point
°C
Rel
Hum
%
Delta-T
°C
Wind Press
QNH
hPa
Press
MSL
hPa
Rain since
9am
mm
Dir  Spd
km/h
Gust
km/h
Spd
kts
Gust
kts
19/11:30pm 21.7 22.4 18.9 84 1.8 NNW 13 17 7 9 1010.4 1010.3 2.2
19/11:00pm 22.7 23.3 19.5 82 2.0 NNW 15 19 8 10 1010.5 1010.4 2.2
19/10:30pm 23.5 24.9 20.4 83 2.0 S 13 20 7 11 1009.0 1008.9 2.2
19/10:00pm 23.1 23.8 20.4 85 1.8 W 17 24 9 13 1009.2 1009.1 2.2
19/09:31pm 25.3 22.8 17.2 61 5.0 SW 26 48 14 26 1007.7 1007.6 2.2
19/09:30pm 23.5 21.8 19.0 76 2.9 SE 26 48 14 26 1007.7 1007.6 2.2
19/09:15pm 23.3 24.1 20.6 85 1.8 ENE 17 30 9 16 1007.5 1007.4 1.6
19/09:00pm 23.8 24.9 20.5 82 2.1 NNW 15 24 8 13 1009.7 1009.6 0.8
19/08:30pm 25.6 26.6 19.5 69 3.9 WSW 13 22 7 12 1008.4 1008.3 0.0
19/08:00pm 26.5 28.5 19.9 67 4.3 SSW 9 15 5 8 1007.2 1007.1 0.0
19/07:30pm 27.3 29.3 19.9 64 4.8 SSE 9 15 5 8 1005.5 1005.4 0.0
19/07:00pm 26.9 27.8 19.3 63 4.9 SE 13 19 7 10 1004.3 1004.2 0.0
19/06:30pm 27.6 28.9 19.4 61 5.3 E 11 17 6 9 1003.8 1003.7 0.0
19/06:00pm 28.7 28.5 19.3 56 6.1 ENE 19 26 10 14 1003.1 1003.0 0.0
19/05:30pm 29.2 29.7 19.2 54 6.5 ENE 15 20 8 11 1003.0 1002.9 0.0
19/05:00pm 30.0 29.8 19.4 53 6.9 E 19 26 10 14 1002.9 1002.8 0.0
19/04:30pm 33.1 31.7 18.8 42 9.3 ENE 24 32 13 17 1002.5 1002.4 0.0
19/04:00pm 32.5 31.1 18.7 44 9.0 E 24 32 13 17 1002.6 1002.5 0.0
19/03:30pm 32.2 31.3 19.1 45 8.6 E 22 30 12 16 1002.6 1002.5 0.0
19/03:00pm 32.3 30.9 18.8 44 8.8 E 24 32 13 17 1003.1 1003.0 0.0
19/02:30pm 33.0 32.1 19.1 43 9.1 E 22 32 12 17 1003.5 1003.4 0.0
19/02:00pm 33.8 33.1 19.5 43 9.5 E 22 32 12 17 1003.7 1003.6 0.0
19/01:30pm 33.1 32.6 19.2 43 9.1 E 20 28 11 15 1004.2 1004.1 0.0
19/01:00pm 33.3 33.7 19.0 42 9.4 E 15 26 8 14 1004.6 1004.5 0.0
19/12:30pm 32.7 33.0 18.8 43 9.1 E 15 19 8 10 1005.1 1005.0 0.0
19/12:00pm 31.2 31.4 18.5 46 8.2 E 15 19 8 10 1005.5 1005.4 0.0
19/11:30am 31.7 33.4 19.3 47 8.1 ESE 9 20 5 11 1006.0 1005.9 0.0
19/11:00am 30.1 30.7 16.9 45 8.3 ENE 9 13 5 7 1006.4 1006.3 0.0
19/10:30am 29.6 30.4 17.4 47 7.7 NE 9 15 5 8 1006.6 1006.5 0.0
19/10:00am 27.4 28.8 18.7 59 5.6 SSW 9 13 5 7 1006.7 1006.6 0.0
19/09:30am 26.4 28.0 18.3 61 5.1 ENE 7 9 4 5 1006.6 1006.5 0.0
19/09:00am 24.6 25.7 18.1 67 4.1 ENE 9 11 5 6 1006.6 1006.5 0.0
19/08:30am 22.5 24.1 17.8 75 2.9 S 6 9 3 5 1006.7 1006.6 0.0
19/08:00am 20.9 23.4 18.1 84 1.7 NW 2 6 1 3 1006.7 1006.6 0.0
19/07:30am 18.9 20.0 17.9 94 0.6 N 9 11 5 6 1006.6 1006.5 0.0
19/07:00am 17.7 18.9 17.4 98 0.2 N 7 9 4 5 1006.8 1006.7 0.0
19/06:30am 16.9 17.5 15.8 93 0.6 NNW 7 7 4 4 1006.7 1006.6 0.0
19/06:00am 18.7 18.8 17.5 93 0.7 WSW 13 17 7 9 1006.7 1006.6 0.0
19/05:30am 19.1 21.1 17.8 92 0.8 WNW 4 11 2 6 1006.3 1006.2 0.0
19/05:00am 19.9 21.8 17.7 87 1.4 N 4 6 2 3 1006.2 1006.1 0.0

Other formats

Comma delimited format used in spreadsheet applications
http://www.bom.gov.au/fwo/IDN60801/IDN60801.95784.axf

JavaScript Object Notation format (JSON) in row-major order
http://www.bom.gov.au/fwo/IDN60801/IDN60801.95784.json

Data quality

Most of these data are generated automatically and are frequently updated. Quality checks on data are not normally performed. It is possible for incorrect values to appear. Refer to information at About Latest Weather Observations and please check the disclaimer before using these data.